Time;durP1;ratioP1;P1;durP2;ratioP2;P2;SDS_P1;SDS_P2;PMS_P1;PMS_P2;Temp;Humidity;BMP_temperature;BMP_pressure;BME280_temperature;BME280_humidity;BME280_pressure;Samples;Min_cycle;Max_cycle;Signal;HPM_P1;HPM_P2
2022/05/20 00:00:17;;;;;;;3.78;0.90;;;;;;;14.18;54.76;100520.72;4972511;28;20042;-42
2022/05/20 00:02:46;;;;;;;5.13;1.10;;;;;;;14.17;54.93;100508.53;4988153;28;20129;-47
2022/05/20 00:05:14;;;;;;;5.38;1.08;;;;;;;14.12;55.09;100499.03;4985606;28;20046;-45
2022/05/20 00:07:41;;;;;;;4.93;1.48;;;;;;;14.11;55.59;100494.72;4987535;28;20050;-41
2022/05/20 00:10:12;;;;;;;5.18;0.90;;;;;;;14.09;55.72;100504.28;4986335;28;20042;-42
2022/05/20 00:12:39;;;;;;;2.17;0.70;;;;;;;14.06;56.14;100504.31;4989939;28;20053;-41
2022/05/20 00:15:06;;;;;;;3.40;1.13;;;;;;;14.05;56.42;100502.56;4986809;28;20042;-43
2022/05/20 00:17:33;;;;;;;4.50;0.80;;;;;;;14.04;56.10;100495.66;4989822;28;20058;-45
2022/05/20 00:20:20;;;;;;;6.35;1.42;;;;;;;14.01;55.54;100495.69;4985276;28;20557;-42
2022/05/20 00:22:48;;;;;;;4.40;1.20;;;;;;;14.00;56.52;100499.16;4975962;28;20054;-46
2022/05/20 00:28:04;;;;;;;;;;;;;;;13.81;57.17;100499.34;4986658;28;20072;-43
2022/05/20 00:30:30;;;;;;;6.85;1.60;;;;;;;13.91;56.68;100501.88;4984825;28;19956;-45
2022/05/20 00:32:57;;;;;;;3.92;0.82;;;;;;;13.91;56.70;100501.88;4988454;28;20042;-42
2022/05/20 00:35:24;;;;;;;2.80;0.70;;;;;;;13.89;56.74;100496.66;4986556;28;20054;-42
2022/05/20 00:37:54;;;;;;;6.78;0.95;;;;;;;13.86;56.38;100492.38;4990477;28;20054;-41
2022/05/20 00:40:24;;;;;;;2.60;1.08;;;;;;;13.88;55.95;100490.59;4985025;28;20132;-43
2022/05/20 00:42:50;;;;;;;2.75;1.17;;;;;;;13.86;56.22;100487.16;4986266;28;20586;-46
2022/05/20 00:45:18;;;;;;;3.15;1.35;;;;;;;13.84;57.41;100483.69;4993499;28;20517;-48
2022/05/20 00:47:44;;;;;;;5.65;0.63;;;;;;;13.83;56.62;100471.56;4986025;28;20061;-45
2022/05/20 00:50:15;;;;;;;5.85;0.60;;;;;;;13.82;56.64;100475.00;4987461;28;20045;-43
2022/05/20 00:52:47;;;;;;;3.50;1.27;;;;;;;13.80;56.58;100458.56;4985983;28;20446;-49
2022/05/20 00:55:18;;;;;;;4.93;0.95;;;;;;;13.78;57.71;100462.91;4986015;28;20042;-46
2022/05/20 00:57:52;;;;;;;4.05;0.95;;;;;;;13.75;56.67;100462.97;4988105;28;20057;-47
2022/05/20 01:00:24;;;;;;;5.97;1.55;;;;;;;13.74;57.05;100461.22;4965395;28;20419;-45
2022/05/20 01:02:59;;;;;;;6.00;2.03;;;;;;;13.70;57.67;100464.72;4993065;28;20128;-45
2022/05/20 01:05:34;;;;;;;4.38;0.85;;;;;;;13.68;57.16;100450.88;4990446;28;20104;-44
2022/05/20 01:08:02;;;;;;;5.03;1.30;;;;;;;13.67;57.96;100450.00;4984624;28;20042;-43
2022/05/20 01:10:29;;;;;;;2.60;0.68;;;;;;;13.67;58.18;100443.91;4986605;28;20169;-49
2022/05/20 01:12:57;;;;;;;2.22;0.75;;;;;;;13.66;57.63;100447.41;4984758;28;20054;-45
2022/05/20 01:15:24;;;;;;;3.78;1.17;;;;;;;13.65;57.76;100450.91;4982399;28;20441;-45
2022/05/20 01:17:53;;;;;;;3.70;0.95;;;;;;;13.61;57.64;100445.72;4985787;28;20430;-43
2022/05/20 01:20:26;;;;;;;4.43;1.13;;;;;;;13.59;57.01;100457.91;4983627;28;20065;-47
2022/05/20 01:25:30;;;;;;;6.40;2.47;;;;;;;13.56;57.89;100462.25;5042704;27;20422;-44
2022/05/20 01:27:57;;;;;;;4.82;3.10;;;;;;;13.54;58.04;100456.22;5024023;28;20123;-45
2022/05/20 01:30:28;;;;;;;4.43;2.17;;;;;;;13.51;58.52;100454.47;5020746;28;20050;-47
2022/05/20 01:32:55;;;;;;;3.65;2.80;;;;;;;13.49;58.17;100448.44;5023300;28;20481;-44
2022/05/20 01:35:32;;;;;;;2.95;2.45;;;;;;;13.46;57.42;100443.22;5025065;28;20041;-42
2022/05/20 01:37:59;;;;;;;2.83;2.28;;;;;;;13.46;58.13;100445.81;5023633;28;20509;-41
2022/05/20 01:40:34;;;;;;;4.07;2.17;;;;;;;13.44;58.41;100447.59;5025587;28;20050;-45
2022/05/20 01:43:09;;;;;;;3.50;2.55;;;;;;;13.39;58.45;100442.41;5021561;28;20103;-40
2022/05/20 01:45:49;;;;;;;2.63;0.98;;;;;;;13.36;58.63;100445.91;5027923;28;20445;-47
2022/05/20 01:50:56;;;;;;;4.90;1.30;;;;;;;13.33;58.69;100445.91;5084867;27;20394;-40
2022/05/20 01:53:31;;;;;;;5.40;0.90;;;;;;;13.31;58.27;100452.84;5001993;28;20533;-40
2022/05/20 01:56:22;;;;;;;5.63;0.98;;;;;;;13.24;58.89;100452.03;5002435;28;20046;-40
2022/05/20 02:01:52;;;;;;;4.15;1.75;;;;;;;13.27;59.02;100430.34;5031444;27;20407;-46
2022/05/20 02:04:29;;;;;;;3.45;1.48;;;;;;;13.25;58.91;100437.31;5026641;28;20525;-47
2022/05/20 02:07:04;;;;;;;4.15;1.73;;;;;;;13.21;59.03;100440.81;5051085;28;20050;-44
2022/05/20 02:09:39;;;;;;;2.38;1.38;;;;;;;13.18;59.41;100438.22;5021376;28;21466;-42
2022/05/20 02:12:09;;;;;;;3.80;1.13;;;;;;;13.17;58.36;100439.13;5026276;28;20049;-45
2022/05/20 02:17:21;;;;;;;3.58;1.77;;;;;;;13.14;59.33;100449.53;5018375;27;20411;-44
2022/05/20 02:19:54;;;;;;;4.70;1.50;;;;;;;13.10;58.88;100433.94;5011223;28;20046;-42
2022/05/20 02:22:25;;;;;;;6.93;1.27;;;;;;;13.10;58.93;100423.53;4999361;28;20042;-42
2022/05/20 02:24:54;;;;;;;3.17;1.42;;;;;;;13.09;58.67;100420.94;5009464;28;20068;-45
2022/05/20 02:27:26;;;;;;;6.15;1.80;;;;;;;13.06;58.52;100411.44;5017354;28;20397;-43
2022/05/20 02:29:59;;;;;;;5.75;1.60;;;;;;;13.06;58.97;100401.03;5009556;28;20144;-44
2022/05/20 02:32:31;;;;;;;3.92;1.27;;;;;;;13.05;58.96;100403.66;5011176;28;20113;-48
2022/05/20 02:34:58;;;;;;;2.70;1.40;;;;;;;13.04;58.93;100402.78;5013518;28;20571;-46
2022/05/20 02:40:02;;;;;;;5.95;2.00;;;;;;;13.05;58.71;100399.31;5034444;28;20439;-45
2022/05/20 02:42:29;;;;;;;5.82;1.90;;;;;;;13.04;59.40;100405.38;4994470;28;20081;-43
2022/05/20 02:44:59;;;;;;;6.85;2.05;;;;;;;13.02;59.90;100420.13;5015816;28;20193;-44
2022/05/20 02:47:31;;;;;;;4.47;1.48;;;;;;;13.01;58.99;100418.41;4988971;28;20061;-45
2022/05/20 02:49:59;;;;;;;3.38;1.70;;;;;;;12.98;59.73;100415.84;4999045;28;20042;-42
2022/05/20 02:52:26;;;;;;;4.03;1.67;;;;;;;12.96;59.33;100420.16;4987027;28;20062;-44
2022/05/20 02:54:53;;;;;;;3.38;2.33;;;;;;;12.93;60.56;100420.19;4996085;28;20408;-43
2022/05/20 02:57:20;;;;;;;3.67;1.23;;;;;;;12.91;60.48;100402.03;4989906;28;20054;-42
2022/05/20 03:05:20;;;;;;;4.93;1.00;;;;;;;12.89;60.13;100408.06;5009564;28;20050;-42
2022/05/20 03:07:47;;;;;;;2.50;1.17;;;;;;;12.88;59.95;100412.44;5002219;28;20050;-41
2022/05/20 03:10:14;;;;;;;5.75;2.55;;;;;;;12.89;60.20;100415.88;4992321;28;20433;-43
2022/05/20 03:12:41;;;;;;;4.13;1.40;;;;;;;12.88;59.66;100408.97;4991677;28;20053;-47
2022/05/20 03:15:11;;;;;;;2.78;1.38;;;;;;;12.89;59.86;100405.47;5000299;28;20050;-45
2022/05/20 03:17:38;;;;;;;4.35;0.98;;;;;;;12.89;60.62;100413.28;4989269;28;20647;-42
2022/05/20 03:20:08;;;;;;;5.60;1.60;;;;;;;12.88;60.26;100406.34;5019625;28;20042;-46
2022/05/20 03:22:36;;;;;;;6.32;1.30;;;;;;;12.87;60.35;100395.09;5025677;28;20050;-42
2022/05/20 03:25:04;;;;;;;5.18;1.83;;;;;;;12.87;60.52;100391.66;5013035;28;20425;-43
2022/05/20 03:27:32;;;;;;;2.55;1.35;;;;;;;12.87;60.30;100394.25;5010322;28;20073;-41
2022/05/20 03:29:59;;;;;;;3.30;1.38;;;;;;;12.85;59.87;100397.72;5008329;28;20073;-43
2022/05/20 03:32:26;;;;;;;3.58;1.50;;;;;;;12.83;60.23;100393.38;5014874;28;20050;-44
2022/05/20 03:34:56;;;;;;;6.43;2.33;;;;;;;12.82;60.83;100399.47;5008554;28;20414;-43
2022/05/20 03:37:25;;;;;;;4.63;1.20;;;;;;;12.80;59.87;100398.63;5016919;28;20042;-42
2022/05/20 03:39:52;;;;;;;4.40;1.50;;;;;;;12.80;60.03;100389.06;5012914;28;21674;-43
2022/05/20 03:42:19;;;;;;;5.03;1.85;;;;;;;12.82;60.99;100376.06;5016425;28;20049;-45
2022/05/20 03:44:46;;;;;;;5.10;1.55;;;;;;;12.82;60.90;100379.53;5015840;28;20054;-42
2022/05/20 03:47:13;;;;;;;4.13;1.50;;;;;;;12.82;60.28;100382.13;5016779;28;20052;-42
2022/05/20 03:49:40;;;;;;;4.55;1.70;;;;;;;12.82;61.01;100379.53;5012346;28;20058;-42
2022/05/20 03:52:08;;;;;;;2.67;1.48;;;;;;;12.79;61.00;100366.56;4993121;28;20054;-44
2022/05/20 03:54:34;;;;;;;3.42;1.52;;;;;;;12.78;61.23;100364.84;4999231;28;20054;-47
2022/05/20 03:57:03;;;;;;;5.97;1.58;;;;;;;12.78;61.42;100354.44;4998266;28;20046;-44
2022/05/20 03:59:33;;;;;;;3.58;1.52;;;;;;;12.78;60.80;100344.06;5001505;28;20104;-41
2022/05/20 04:02:00;;;;;;;3.78;1.38;;;;;;;12.76;60.31;100345.78;4995846;28;20046;-41
2022/05/20 04:07:11;;;;;;;4.47;1.83;;;;;;;12.64;61.07;100356.25;5041057;27;20418;-44
2022/05/20 04:09:37;;;;;;;4.75;2.97;;;;;;;12.59;61.42;100349.38;5014434;28;20045;-42
2022/05/20 04:12:07;;;;;;;6.47;2.55;;;;;;;12.59;60.63;100349.38;5007737;28;20087;-43
2022/05/20 04:14:34;;;;;;;;;;;;;;;12.44;62.31;100345.13;5018045;28;20544;-46
2022/05/20 04:17:02;;;;;;;3.67;2.25;;;;;;;12.56;60.99;100348.50;5019023;28;19921;-45
2022/05/20 04:19:31;;;;;;;6.07;1.77;;;;;;;12.58;60.39;100352.84;5014445;28;20514;-46
2022/05/20 04:22:01;;;;;;;5.88;1.98;;;;;;;12.59;61.98;100359.75;5009202;28;20060;-43
2022/05/20 04:24:28;;;;;;;7.47;2.47;;;;;;;12.62;60.79;100358.00;4995645;28;20046;-42
2022/05/20 04:26:55;;;;;;;8.00;2.50;;;;;;;12.61;61.56;100351.97;4994881;28;20143;-44
2022/05/20 04:29:21;;;;;;;3.38;2.10;;;;;;;12.60;60.70;100351.09;4993801;28;20855;-44
2022/05/20 04:31:50;;;;;;;5.00;2.45;;;;;;;12.62;61.64;100358.00;4993371;28;20085;-40
2022/05/20 04:34:18;;;;;;;2.75;2.13;;;;;;;12.64;61.16;100364.06;4994842;28;20136;-43
2022/05/20 04:36:45;;;;;;;3.28;2.03;;;;;;;12.63;61.08;100365.78;4989271;28;20579;-41
2022/05/20 04:39:12;;;;;;;5.05;2.33;;;;;;;12.64;60.94;100356.25;5020325;28;20050;-47
2022/05/20 04:47:18;;;;;;;6.20;2.30;;;;;;;12.67;61.06;100361.44;5011117;28;20047;-43
2022/05/20 04:49:45;;;;;;;3.33;2.00;;;;;;;12.69;61.44;100359.69;5022489;28;20053;-41
2022/05/20 04:52:11;;;;;;;4.53;2.47;;;;;;;12.70;60.73;100361.44;4994152;28;20046;-43
2022/05/20 04:54:54;;;;;;;4.18;0.82;;;;;;;12.70;60.42;100364.88;4992540;28;20599;-43
2022/05/20 05:00:12;;;;;;;3.58;1.20;;;;;;;12.70;60.58;100367.47;5063438;27;20383;-43
2022/05/20 05:02:39;;;;;;;3.63;0.98;;;;;;;12.71;61.30;100379.59;5012303;28;20050;-48
2022/05/20 05:05:08;;;;;;;3.53;1.63;;;;;;;12.69;60.33;100380.47;5012486;28;20054;-44
2022/05/20 05:07:36;;;;;;;4.30;1.10;;;;;;;12.68;60.68;100384.84;5021132;28;20049;-46
2022/05/20 05:10:04;;;;;;;4.97;1.48;;;;;;;12.68;61.55;100386.56;5012014;28;20758;-43
2022/05/20 05:12:30;;;;;;;4.05;1.10;;;;;;;12.69;61.11;100393.47;5014149;28;20060;-46
2022/05/20 05:14:57;;;;;;;3.40;0.90;;;;;;;12.69;60.39;100396.06;5013310;28;20046;-45
2022/05/20 05:20:17;;;;;;;2.90;1.08;;;;;;;12.69;60.10;100396.06;5017385;28;20053;-47
2022/05/20 05:22:44;;;;;;;2.65;0.98;;;;;;;12.68;60.16;100400.44;4995391;28;20061;-45
2022/05/20 05:25:13;;;;;;;3.13;1.13;;;;;;;12.70;60.47;100395.22;4990206;28;20050;-45
2022/05/20 05:27:39;;;;;;;5.40;1.20;;;;;;;12.72;59.55;100401.25;5022218;28;20050;-45
2022/05/20 05:30:08;;;;;;;3.95;1.35;;;;;;;12.73;59.65;100402.97;4996562;28;20100;-45
2022/05/20 05:32:35;;;;;;;3.13;1.17;;;;;;;12.73;60.90;100403.84;4985093;28;20054;-43
2022/05/20 05:35:04;;;;;;;4.10;1.40;;;;;;;12.75;59.64;100406.44;4986966;28;20161;-45
2022/05/20 05:37:34;;;;;;;3.10;1.00;;;;;;;12.75;60.56;100411.63;4991553;28;20050;-48
2022/05/20 05:40:01;;;;;;;3.40;1.45;;;;;;;12.76;60.63;100408.16;4989980;28;20050;-43
2022/05/20 05:42:29;;;;;;;2.85;1.00;;;;;;;12.78;60.29;100419.44;4996709;28;20052;-43
2022/05/20 05:44:56;;;;;;;2.65;0.90;;;;;;;12.78;60.63;100415.94;4994990;28;21665;-42
2022/05/20 05:47:23;;;;;;;3.83;1.23;;;;;;;12.77;60.69;100420.28;4995707;28;20514;-44
2022/05/20 05:50:07;;;;;;;2.17;0.80;;;;;;;12.77;60.31;100425.47;4997870;28;20049;-48
2022/05/20 05:52:34;;;;;;;4.13;0.85;;;;;;;12.79;59.84;100434.13;4992453;28;20046;-43
2022/05/20 05:55:02;;;;;;;3.47;0.90;;;;;;;12.79;60.02;100428.94;4989757;28;20092;-43
2022/05/20 05:57:29;;;;;;;3.60;1.30;;;;;;;12.81;59.56;100435.00;5001219;28;20057;-45
2022/05/20 05:59:56;;;;;;;2.83;0.93;;;;;;;12.84;60.82;100426.31;4993749;28;20876;-44
2022/05/20 06:02:24;;;;;;;6.03;0.98;;;;;;;12.83;59.94;100430.66;4985896;28;20543;-46
2022/05/20 06:04:51;;;;;;;4.82;0.73;;;;;;;12.86;60.77;100429.75;4994923;28;20101;-44
2022/05/20 06:07:18;;;;;;;1.85;0.90;;;;;;;12.89;59.73;100428.88;4997405;28;20073;-45
2022/05/20 06:09:45;;;;;;;2.38;1.10;;;;;;;12.90;59.63;100430.63;4978389;28;20126;-46
2022/05/20 06:12:14;;;;;;;2.67;0.90;;;;;;;12.91;60.84;100437.53;4978633;28;20046;-43
2022/05/20 06:14:41;;;;;;;3.58;0.70;;;;;;;12.92;59.82;100444.47;4972891;28;20483;-43
2022/05/20 06:17:11;;;;;;;4.82;1.25;;;;;;;12.94;60.54;100442.72;4983271;28;20046;-47
2022/05/20 06:19:39;;;;;;;3.85;1.13;;;;;;;12.95;59.98;100449.66;4973438;28;20053;-48
2022/05/20 06:22:06;;;;;;;3.65;1.00;;;;;;;12.97;61.16;100437.50;4981577;28;20073;-44
2022/05/20 06:24:33;;;;;;;2.92;0.75;;;;;;;12.98;60.42;100426.22;4974600;28;20053;-47
2022/05/20 06:27:01;;;;;;;1.30;0.63;;;;;;;12.99;60.27;100420.16;4972169;28;20120;-46
2022/05/20 06:29:28;;;;;;;1.65;0.77;;;;;;;13.00;61.14;100415.81;4966473;28;20060;-48
2022/05/20 06:31:55;;;;;;;3.50;1.00;;;;;;;13.02;61.20;100412.34;4972331;28;20058;-47
2022/05/20 06:34:22;;;;;;;3.03;1.45;;;;;;;13.04;60.82;100401.94;4972215;28;20148;-43
2022/05/20 06:39:51;;;;;;;3.22;0.93;;;;;;;13.08;60.61;100388.88;4995224;28;20054;-49
2022/05/20 06:42:19;;;;;;;3.65;0.90;;;;;;;13.12;60.91;100389.72;4975242;28;20547;-47
2022/05/20 06:44:46;;;;;;;4.25;2.40;;;;;;;13.18;60.73;100388.81;4994270;28;20449;-44
2022/05/20 06:47:13;;;;;;;3.30;2.33;;;;;;;13.23;61.11;100385.31;4965194;28;20431;-46
2022/05/20 06:49:42;;;;;;;3.55;1.38;;;;;;;13.26;60.72;100376.59;4962931;28;20054;-47
2022/05/20 06:52:08;;;;;;;6.05;1.20;;;;;;;13.29;62.06;100371.38;4969701;28;20406;-48
2022/05/20 06:54:55;;;;;;;4.70;1.00;;;;;;;13.35;61.18;100370.47;4973350;28;20050;-48
2022/05/20 06:57:24;;;;;;;4.53;1.15;;;;;;;13.42;61.07;100355.66;4974986;28;20059;-48
2022/05/20 06:59:52;;;;;;;4.63;0.93;;;;;;;13.44;61.13;100348.72;4961426;28;20081;-46
2022/05/20 07:02:19;;;;;;;5.18;1.17;;;;;;;13.49;62.06;100341.75;4964460;28;20042;-47
2022/05/20 07:04:51;;;;;;;5.90;1.30;;;;;;;13.51;61.98;100333.94;5003405;28;20070;-51
2022/05/20 07:07:18;;;;;;;4.30;0.95;;;;;;;13.52;61.60;100341.72;4972859;28;20054;-48
2022/05/20 07:09:45;;;;;;;4.85;1.05;;;;;;;13.55;62.47;100341.69;4969228;28;21480;-47
2022/05/20 07:12:28;;;;;;;4.32;0.95;;;;;;;13.56;62.02;100347.75;4971918;28;20100;-50
2022/05/20 07:14:56;;;;;;;5.53;1.80;;;;;;;13.58;62.38;100362.47;4972429;28;20451;-48
2022/05/20 07:17:23;;;;;;;6.20;1.67;;;;;;;13.59;62.40;100379.81;4966439;28;20390;-50
2022/05/20 07:19:51;;;;;;;3.25;0.80;;;;;;;13.59;61.92;100373.75;4969489;28;20051;-50
2022/05/20 07:22:17;;;;;;;4.85;1.02;;;;;;;13.59;62.80;100385.03;4974193;28;20053;-47
2022/05/20 07:24:44;;;;;;;4.05;1.08;;;;;;;13.62;61.40;100384.13;4965918;28;20057;-49
2022/05/20 07:27:11;;;;;;;3.50;1.52;;;;;;;13.64;62.25;100384.13;4971339;28;20054;-47
2022/05/20 07:29:38;;;;;;;4.22;1.80;;;;;;;13.66;62.90;100379.72;4972118;28;20399;-49
2022/05/20 07:32:06;;;;;;;2.42;0.82;;;;;;;13.67;62.54;100389.25;4999883;28;20081;-51
2022/05/20 07:34:33;;;;;;;3.92;1.02;;;;;;;13.68;62.95;100393.63;4976475;28;20050;-52
2022/05/20 07:37:00;;;;;;;4.28;1.40;;;;;;;13.70;62.78;100397.03;4970618;28;20182;-48
2022/05/20 07:39:27;;;;;;;5.47;1.45;;;;;;;13.72;62.15;100397.91;4977922;28;20457;-50
2022/05/20 07:41:54;;;;;;;1.75;1.02;;;;;;;13.69;63.21;100401.41;4981221;28;20054;-50
2022/05/20 07:44:21;;;;;;;5.95;1.60;;;;;;;13.70;62.93;100386.63;4970637;28;20069;-47
2022/05/20 07:46:48;;;;;;;4.45;1.50;;;;;;;13.76;63.32;100389.19;4971066;28;20057;-46
2022/05/20 07:49:15;;;;;;;5.32;1.55;;;;;;;13.82;63.13;100393.47;4982947;28;20130;-48
2022/05/20 07:51:45;;;;;;;7.10;2.63;;;;;;;13.83;62.63;100401.25;4975356;28;20453;-49
2022/05/20 07:54:19;;;;;;;5.95;1.27;;;;;;;13.82;63.24;100396.91;4970189;28;20046;-54
2022/05/20 07:56:52;;;;;;;2.75;0.93;;;;;;;13.83;62.88;100393.44;4978673;28;20073;-49
2022/05/20 07:59:24;;;;;;;8.73;1.88;;;;;;;13.81;62.81;100384.78;4976725;28;20053;-48
2022/05/20 08:01:52;;;;;;;5.53;1.60;;;;;;;13.81;62.37;100387.38;4971105;28;20054;-47
2022/05/20 08:07:13;;;;;;;3.75;0.95;;;;;;;13.95;62.28;100365.56;4992971;28;20495;-47
2022/05/20 08:09:39;;;;;;;5.60;1.10;;;;;;;14.03;62.49;100366.31;5001407;28;20142;-51
2022/05/20 08:12:06;;;;;;;3.90;1.17;;;;;;;14.11;63.17;100361.88;4976848;28;20698;-51
2022/05/20 08:14:45;;;;;;;3.13;1.00;;;;;;;14.13;62.73;100354.91;4976964;28;20051;-49
2022/05/20 08:17:11;;;;;;;3.08;0.95;;;;;;;14.13;61.79;100357.53;4976461;28;20513;-50
2022/05/20 08:19:39;;;;;;;4.03;1.35;;;;;;;14.20;61.53;100352.22;4981171;28;20457;-46
2022/05/20 08:22:06;;;;;;;4.07;1.10;;;;;;;14.25;61.35;100345.19;4975615;28;20132;-51
2022/05/20 08:24:33;;;;;;;3.88;0.60;;;;;;;14.30;62.27;100338.19;4977421;28;20046;-46
2022/05/20 08:27:00;;;;;;;3.97;1.20;;;;;;;14.38;61.70;100333.75;5008219;28;20518;-46
2022/05/20 08:29:27;;;;;;;3.67;0.98;;;;;;;14.49;61.59;100330.13;4967271;28;20046;-46
2022/05/20 08:31:54;;;;;;;3.75;1.20;;;;;;;14.56;60.71;100326.53;4963439;28;20507;-53
2022/05/20 08:34:20;;;;;;;4.35;0.60;;;;;;;14.66;61.21;100316.84;4970127;28;20121;-49
2022/05/20 08:36:47;;;;;;;4.53;1.30;;;;;;;14.84;61.17;100317.47;4978516;28;20061;-47
2022/05/20 08:39:14;;;;;;;2.63;1.00;;;;;;;14.96;60.77;100314.63;4976450;28;20043;-49
2022/05/20 08:41:46;;;;;;;2.47;0.90;;;;;;;15.09;60.69;100304.84;4966245;28;20086;-48
2022/05/20 08:44:18;;;;;;;8.48;1.23;;;;;;;15.23;60.83;100307.22;4965005;28;20475;-54
2022/05/20 08:46:46;;;;;;;2.65;1.00;;;;;;;15.34;60.23;100296.63;4956584;28;20055;-47
2022/05/20 08:49:17;;;;;;;1.48;0.85;;;;;;;15.50;60.07;100299.78;4964096;28;20451;-51
2022/05/20 08:51:50;;;;;;;2.78;0.65;;;;;;;15.67;59.30;100291.59;4979838;28;20070;-49
2022/05/20 08:54:17;;;;;;;2.97;0.98;;;;;;;15.77;59.77;100291.44;4977267;28;20054;-45
2022/05/20 08:56:44;;;;;;;1.48;0.60;;;;;;;15.86;59.71;100296.47;4973084;28;20054;-49
2022/05/20 08:59:17;;;;;;;2.13;0.70;;;;;;;15.91;59.67;100291.16;4997344;28;20051;-47
2022/05/20 09:01:49;;;;;;;1.20;0.52;;;;;;;15.94;59.19;100289.31;4966377;28;20069;-44
2022/05/20 09:04:19;;;;;;;3.03;0.68;;;;;;;15.88;58.34;100299.88;4964830;28;20050;-47
2022/05/20 09:09:58;;;;;;;2.65;0.43;;;;;;;15.81;59.22;100288.72;5055602;27;20404;-42
2022/05/20 09:12:37;;;;;;;2.95;0.85;;;;;;;15.91;58.68;100288.53;5009319;28;20050;-48
2022/05/20 09:20:45;;;;;;;5.28;2.15;;;;;;;16.00;59.20;100292.72;5038195;28;20416;-45
2022/05/20 09:23:13;;;;;;;8.07;2.50;;;;;;;16.03;58.91;100293.53;4997588;28;20057;-46
2022/05/20 09:26:19;;;;;;;5.53;2.63;;;;;;;16.02;58.62;100298.78;4984433;28;20042;-47
2022/05/20 09:44:38;;;;;;;3.63;2.10;;;;;;;16.09;58.41;100286.44;5048782;28;21264;-49
2022/05/20 09:55:07;;;;;;;3.95;0.73;;;;;;;16.06;58.42;100289.97;5033663;27;20413;-45
2022/05/20 09:57:39;;;;;;;4.43;0.57;;;;;;;16.03;58.09;100283.06;5024591;28;20050;-47
2022/05/20 10:00:17;;;;;;;4.25;0.70;;;;;;;16.03;59.44;100283.06;5023052;28;20061;-45
2022/05/20 10:03:24;;;;;;;1.85;1.25;;;;;;;16.03;58.56;100280.47;5023500;28;20053;-45
2022/05/20 10:06:06;;;;;;;4.60;0.63;;;;;;;16.06;58.29;100276.91;4988182;28;20057;-50
2022/05/20 10:21:58;;;;;;;4.07;1.25;;;;;;;16.46;57.43;100269.94;5042271;28;20398;-45
2022/05/20 15:39:59;;;;;;;3.05;0.80;;;;;;;19.88;44.84;100088.75;5034361;27;20404;-43
2022/05/20 15:42:27;;;;;;;5.65;1.00;;;;;;;19.83;44.88;100080.22;5013989;28;20168;-46
2022/05/20 15:44:54;;;;;;;1.92;0.98;;;;;;;19.80;45.28;100075.94;5000805;28;20046;-44
2022/05/20 15:47:23;;;;;;;6.07;0.82;;;;;;;19.82;45.08;100083.78;5003372;28;20544;-50
2022/05/20 15:49:50;;;;;;;1.17;0.68;;;;;;;19.83;44.78;100080.22;4994580;28;20124;-42
2022/05/20 15:52:24;;;;;;;2.40;1.10;;;;;;;19.93;45.56;100078.94;5010538;28;20499;-43
2022/05/20 15:54:56;;;;;;;1.50;0.85;;;;;;;19.97;44.96;100082.28;5000490;28;20058;-42
2022/05/20 15:57:24;;;;;;;3.40;0.82;;;;;;;19.97;45.09;100075.25;5011033;28;20495;-46
2022/05/20 15:59:52;;;;;;;3.92;0.45;;;;;;;20.00;45.15;100066.41;5004615;28;20041;-43
2022/05/20 16:02:21;;;;;;;6.40;0.90;;;;;;;20.01;44.72;100073.38;5004673;28;20644;-44
2022/05/20 16:04:51;;;;;;;2.10;0.68;;;;;;;20.00;44.83;100067.25;5006756;28;20077;-44
2022/05/20 16:07:22;;;;;;;3.90;0.75;;;;;;;19.96;44.19;100065.63;5008342;28;20115;-46
2022/05/20 16:09:49;;;;;;;2.70;0.82;;;;;;;19.96;44.21;100065.63;5003187;28;20054;-44
2022/05/20 16:12:19;;;;;;;6.53;0.73;;;;;;;19.91;44.61;100068.47;5013000;28;20062;-43
2022/05/20 16:14:46;;;;;;;2.30;0.43;;;;;;;19.88;44.44;100070.34;5006255;28;20157;-44
2022/05/20 16:17:13;;;;;;;2.08;0.43;;;;;;;19.77;44.73;100070.81;5001137;28;20053;-47
2022/05/20 16:19:39;;;;;;;4.18;0.60;;;;;;;19.78;44.58;100062.88;5012281;28;20049;-45
2022/05/20 16:22:09;;;;;;;2.22;0.63;;;;;;;19.76;44.62;100054.19;5012313;28;20046;-45
2022/05/20 16:24:41;;;;;;;1.98;1.05;;;;;;;19.73;44.50;100056.94;4995362;28;20045;-45
2022/05/20 16:27:09;;;;;;;2.03;0.57;;;;;;;19.73;45.08;100059.56;5005774;28;20050;-45
2022/05/20 16:29:36;;;;;;;2.10;0.65;;;;;;;19.80;45.31;100054.91;5004281;28;20042;-41
2022/05/20 16:32:03;;;;;;;2.95;0.73;;;;;;;19.87;45.34;100055.53;5002982;28;20054;-45
2022/05/20 16:34:30;;;;;;;3.53;0.93;;;;;;;19.90;45.10;100050.13;5003698;28;20042;-43
2022/05/20 16:36:57;;;;;;;1.60;0.43;;;;;;;19.89;44.81;100053.66;5001369;28;20058;-43
2022/05/20 16:39:23;;;;;;;5.10;0.68;;;;;;;19.83;44.24;100053.94;5000298;28;20053;-44
2022/05/20 16:41:50;;;;;;;1.38;0.40;;;;;;;19.72;44.56;100047.34;4999911;28;20050;-45
2022/05/20 16:44:17;;;;;;;3.78;0.40;;;;;;;19.64;44.92;100054.69;5002857;28;20057;-44
2022/05/20 16:46:44;;;;;;;4.53;1.35;;;;;;;19.57;44.10;100045.34;5001407;28;20399;-45
2022/05/20 16:49:18;;;;;;;4.07;0.82;;;;;;;19.44;44.24;100051.09;4998217;28;20073;-44
2022/05/20 16:51:47;;;;;;;3.65;1.20;;;;;;;19.37;44.66;100052.25;4989178;28;20050;-44
2022/05/20 16:54:17;;;;;;;3.22;0.40;;;;;;;19.34;45.34;100047.09;4990523;28;20121;-48
2022/05/20 17:02:21;;;;;;;5.13;1.92;;;;;;;19.21;45.45;100047.59;4988333;28;20427;-45
2022/05/20 17:04:48;;;;;;;3.38;0.85;;;;;;;19.12;45.78;100045.34;4986005;28;20090;-42
2022/05/20 17:07:14;;;;;;;1.48;0.75;;;;;;;19.11;45.86;100048.84;4986339;28;20046;-44
2022/05/20 17:09:42;;;;;;;2.65;1.20;;;;;;;19.12;45.98;100054.06;4989416;28;20053;-45
2022/05/20 17:12:10;;;;;;;4.13;0.85;;;;;;;19.12;46.26;100048.81;4989822;28;20046;-45
2022/05/20 17:14:37;;;;;;;2.95;1.60;;;;;;;19.06;45.68;100042.91;4991801;28;20042;-49
2022/05/20 17:17:07;;;;;;;2.45;0.35;;;;;;;18.99;46.38;100043.13;4990586;28;20051;-44
2022/05/20 17:19:34;;;;;;;2.53;0.60;;;;;;;18.85;45.68;100045.44;4987930;28;20069;-46
2022/05/20 17:24:47;;;;;;;3.55;0.90;;;;;;;18.83;46.84;100037.63;4990250;28;20046;-48
2022/05/20 17:27:17;;;;;;;1.88;0.47;;;;;;;18.81;46.72;100033.34;4990242;28;20042;-43
2022/05/20 17:29:45;;;;;;;3.03;0.75;;;;;;;18.72;47.15;100030.16;4988282;28;20077;-41
2022/05/20 17:32:14;;;;;;;2.63;0.63;;;;;;;18.66;46.77;100038.25;4989448;28;20045;-43
2022/05/20 17:34:41;;;;;;;2.20;0.60;;;;;;;18.66;47.26;100040.88;4987172;28;20047;-47
2022/05/20 17:37:09;;;;;;;2.58;0.43;;;;;;;18.57;47.87;100046.44;4990282;28;20453;-44
2022/05/20 17:39:37;;;;;;;5.95;1.67;;;;;;;18.47;47.98;100031.03;4987675;28;20057;-47
2022/05/20 17:42:05;;;;;;;4.57;2.17;;;;;;;18.45;47.86;100048.63;4990231;28;20054;-43
2022/05/20 17:44:33;;;;;;;3.75;2.22;;;;;;;18.45;47.81;100043.38;4982887;28;20666;-49
2022/05/20 17:47:01;;;;;;;2.72;0.98;;;;;;;18.43;48.21;100047.81;4986490;28;20043;-45
2022/05/20 17:49:29;;;;;;;5.00;1.90;;;;;;;18.41;48.92;100052.22;4989052;28;20450;-44
2022/05/20 17:51:56;;;;;;;4.15;1.67;;;;;;;18.35;49.20;100053.34;4989196;28;20054;-42
2022/05/20 17:54:23;;;;;;;3.90;1.40;;;;;;;18.30;49.02;100059.66;4993439;28;20053;-43
2022/05/20 17:56:50;;;;;;;2.65;0.82;;;;;;;18.24;49.00;100056.31;4988251;28;20061;-44
2022/05/20 17:59:17;;;;;;;2.53;0.73;;;;;;;18.23;49.39;100058.97;4988677;28;20038;-44
2022/05/20 18:01:44;;;;;;;2.80;1.10;;;;;;;18.17;50.27;100057.44;4974442;28;20069;-48
2022/05/20 18:04:11;;;;;;;4.88;0.88;;;;;;;18.12;49.88;100056.72;4987368;28;20072;-45
2022/05/20 18:06:39;;;;;;;3.50;1.48;;;;;;;18.07;50.06;100056.00;4987275;28;20380;-46
2022/05/20 18:09:10;;;;;;;2.45;0.70;;;;;;;18.02;50.55;100066.66;4985085;28;20051;-50
2022/05/20 18:11:37;;;;;;;5.10;0.70;;;;;;;17.97;50.91;100074.66;4989034;28;20525;-47
2022/05/20 18:14:06;;;;;;;3.40;0.57;;;;;;;17.87;51.14;100070.63;4987297;28;20129;-44
2022/05/20 18:16:33;;;;;;;3.50;1.15;;;;;;;17.80;51.50;100071.75;4965106;28;20112;-43
2022/05/20 18:19:00;;;;;;;1.88;0.73;;;;;;;17.74;52.08;100064.94;4981068;28;20047;-43
2022/05/20 18:21:27;;;;;;;2.50;0.95;;;;;;;17.66;52.27;100062.56;4989800;28;20072;-46
2022/05/20 18:24:01;;;;;;;1.88;0.52;;;;;;;17.57;52.17;100065.47;4986696;28;20546;-49
2022/05/20 18:26:34;;;;;;;4.40;1.08;;;;;;;17.54;52.58;100065.56;4985613;28;20134;-45